Accueil
METAR-TAF:

METAR-TAF

Aéroports :

Aéroport de Saint-Pierre Pierrefonds

Saint-Pierre, Réunion

latitude: 21-20S, longitude: 055-29E, altitude: 52 m

Observation

Le bulletin a été fait il y a 38 minutes, à 19:30 UTC
Vent 10 kt de est/sud-est, variant entre est et sud/sud-est
Température 26°C
Humidité 65%
Pression 1017 hPa
Visibilité 10 km ou plus
pas de nuages en-dessous de 1500 mètres et pas de cumulonimbus.

METAR: FMEP 151930Z AUTO 12010KT 090V150 CAVOK 26/19 Q1017

Heure: 00:08 (20:08 UTC)

Prévision

Le bulletin a été fait il y a 9 heures et 8 minutes, à 11:00 UTC
Prévision valable du 15 à 12 UTC au 15 à 21 UTC
Vent 21 kt de sud-est avec des rafales jusqu'à 31 kt
Visibilité 10 km ou plus
Quelques nuages à une hauteur de 3300 ft
Evoluant progressivement
du 15 à 14 UTC au 15 à 16 UTC
Vent 18 kt de sud-est

TAF: FMEP 151100Z 1512/1521 13021G31KT 9999 FEW033 BECMG 1514/1516 14018KT

Observations et prévisions météorologiques de plus de 4000 aéroports (messages METAR et TAF).

Les stations disponibles sont représentées par des disques jaunes et rouges sur la carte.

Passer la souris dessus pour voir le nom de la station.

Cliquer dessus pour voir les observations et prévisions météorologiques.

Pour changer de carte: cliquez sur les boutons verts avec une croix noire pour zoomer, sur le bouton vert avec un tiret pour effectuer un zoom arrière, ou sur les flèches vertes pour les cartes adjacentes.


METAR-TAF: